Alamillo, New Mexico
Current Conditions -  °F | °C
As of 9:35 AM on Sunday 21 Dec 2014 (Local Time) from KONM Reporting Station
Clear Clear  
Wind Chill:   Ceiling: Unl
Heat Index:   Visibility: 10mi
Dew Point: -4°   Wind: 0mph
Humidity: 68%   Direction: NA
Pressure: 30.07"   Gusts: NA
Location:  34.262°N, 106.87°W
Report Text: KONM 211635Z AUTO 00000KT 10SM CLR 02/M04 A3007 RMK AO2 T00171036
Loading
Personal Weather Stations






























Interactive Weather Map New forecast layout! Learn more

10-Day Weather Forecast

Advertisements
Track Severe Weather on mobile